sensor_id;sensor_type;location;lat;lon;timestamp;pressure;altitude;pressure_sealevel;temperature;humidity
50356;BME280;36264;51.296;-0.602;2023-03-19T00:01:25;100731.50;;;20.92;47.83
50356;BME280;36264;51.296;-0.602;2023-03-19T00:03:50;100729.47;;;20.96;47.96
50356;BME280;36264;51.296;-0.602;2023-03-19T00:06:16;100731.88;;;20.99;47.81
50356;BME280;36264;51.296;-0.602;2023-03-19T00:08:41;100730.22;;;21.09;47.85
50356;BME280;36264;51.296;-0.602;2023-03-19T00:11:08;100728.09;;;21.26;47.61
50356;BME280;36264;51.296;-0.602;2023-03-19T00:13:33;100738.31;;;21.19;47.33
50356;BME280;36264;51.296;-0.602;2023-03-19T00:15:59;100738.78;;;21.24;47.54
50356;BME280;36264;51.296;-0.602;2023-03-19T00:18:24;100742.16;;;21.26;47.67
50356;BME280;36264;51.296;-0.602;2023-03-19T00:20:50;100742.03;;;21.28;47.53
50356;BME280;36264;51.296;-0.602;2023-03-19T00:23:15;100741.66;;;21.21;48.04
50356;BME280;36264;51.296;-0.602;2023-03-19T00:25:41;100740.72;;;21.22;47.99
50356;BME280;36264;51.296;-0.602;2023-03-19T00:28:06;100748.25;;;21.27;48.06
50356;BME280;36264;51.296;-0.602;2023-03-19T00:30:32;100753.31;;;21.30;48.21
50356;BME280;36264;51.296;-0.602;2023-03-19T00:32:57;100759.34;;;21.32;47.97
50356;BME280;36264;51.296;-0.602;2023-03-19T00:35:22;100756.59;;;21.33;47.96
50356;BME280;36264;51.296;-0.602;2023-03-19T00:37:48;100761.97;;;21.32;47.96
50356;BME280;36264;51.296;-0.602;2023-03-19T00:40:13;100760.28;;;21.31;48.25
50356;BME280;36264;51.296;-0.602;2023-03-19T00:42:39;100768.91;;;21.22;48.10
50356;BME280;36264;51.296;-0.602;2023-03-19T00:45:06;100769.91;;;21.32;48.47
50356;BME280;36264;51.296;-0.602;2023-03-19T00:47:31;100771.88;;;21.17;48.78
50356;BME280;36264;51.296;-0.602;2023-03-19T00:49:57;100775.16;;;21.21;48.74
50356;BME280;36264;51.296;-0.602;2023-03-19T00:52:22;100797.25;;;21.20;48.66
50356;BME280;36264;51.296;-0.602;2023-03-19T00:54:47;100801.91;;;21.16;49.19
50356;BME280;36264;51.296;-0.602;2023-03-19T00:57:13;100803.34;;;20.85;50.19
50356;BME280;36264;51.296;-0.602;2023-03-19T00:59:38;100791.16;;;20.34;50.67
50356;BME280;36264;51.296;-0.602;2023-03-19T01:02:03;100799.41;;;20.53;50.29
50356;BME280;36264;51.296;-0.602;2023-03-19T01:04:29;100811.94;;;20.38;50.15
50356;BME280;36264;51.296;-0.602;2023-03-19T01:06:55;100796.66;;;20.31;50.42
50356;BME280;36264;51.296;-0.602;2023-03-19T01:09:20;100796.13;;;20.25;50.46
50356;BME280;36264;51.296;-0.602;2023-03-19T01:11:46;100807.78;;;19.97;50.57
50356;BME280;36264;51.296;-0.602;2023-03-19T01:14:11;100818.19;;;19.73;51.29
50356;BME280;36264;51.296;-0.602;2023-03-19T01:16:37;100820.72;;;19.75;51.19
50356;BME280;36264;51.296;-0.602;2023-03-19T01:19:02;100835.78;;;19.72;51.07
50356;BME280;36264;51.296;-0.602;2023-03-19T01:21:28;100833.19;;;19.85;50.61
50356;BME280;36264;51.296;-0.602;2023-03-19T01:23:55;100831.28;;;19.75;50.82
50356;BME280;36264;51.296;-0.602;2023-03-19T01:26:22;100839.22;;;19.87;50.57
50356;BME280;36264;51.296;-0.602;2023-03-19T01:28:47;100846.00;;;19.64;50.83
50356;BME280;36264;51.296;-0.602;2023-03-19T01:31:12;100835.75;;;19.34;51.00
50356;BME280;36264;51.296;-0.602;2023-03-19T01:33:38;100856.56;;;19.24;51.41
50356;BME280;36264;51.296;-0.602;2023-03-19T01:36:03;100863.59;;;19.51;50.76
50356;BME280;36264;51.296;-0.602;2023-03-19T01:38:30;100866.16;;;19.65;50.83
50356;BME280;36264;51.296;-0.602;2023-03-19T01:40:56;100870.84;;;19.47;50.64
50356;BME280;36264;51.296;-0.602;2023-03-19T01:43:26;100869.91;;;19.48;50.69
50356;BME280;36264;51.296;-0.602;2023-03-19T01:45:56;100878.72;;;19.75;49.81
50356;BME280;36264;51.296;-0.602;2023-03-19T01:48:41;100893.44;;;19.64;49.68
50356;BME280;36264;51.296;-0.602;2023-03-19T01:51:11;100889.41;;;19.86;49.50
50356;BME280;36264;51.296;-0.602;2023-03-19T01:53:39;100873.88;;;19.81;49.72
50356;BME280;36264;51.296;-0.602;2023-03-19T01:56:22;100892.03;;;19.86;49.25
50356;BME280;36264;51.296;-0.602;2023-03-19T01:58:50;100886.66;;;19.87;49.62
50356;BME280;36264;51.296;-0.602;2023-03-19T02:01:17;100890.22;;;19.86;49.09
50356;BME280;36264;51.296;-0.602;2023-03-19T02:03:45;100890.84;;;19.90;48.83
50356;BME280;36264;51.296;-0.602;2023-03-19T02:06:12;100895.59;;;19.98;48.98
50356;BME280;36264;51.296;-0.602;2023-03-19T02:08:38;100898.41;;;19.69;49.17
50356;BME280;36264;51.296;-0.602;2023-03-19T02:11:05;100900.56;;;19.89;48.75
50356;BME280;36264;51.296;-0.602;2023-03-19T02:13:30;100905.16;;;19.73;48.93
50356;BME280;36264;51.296;-0.602;2023-03-19T02:15:56;100895.91;;;19.80;48.62
50356;BME280;36264;51.296;-0.602;2023-03-19T02:18:23;100893.50;;;20.16;48.66
50356;BME280;36264;51.296;-0.602;2023-03-19T02:21:10;100904.28;;;20.25;47.57
50356;BME280;36264;51.296;-0.602;2023-03-19T02:23:53;100904.47;;;20.35;47.80
50356;BME280;36264;51.296;-0.602;2023-03-19T02:26:22;100900.34;;;20.31;48.17
50356;BME280;36264;51.296;-0.602;2023-03-19T02:28:49;100899.81;;;20.39;47.95
50356;BME280;36264;51.296;-0.602;2023-03-19T02:31:16;100901.19;;;20.32;47.74
50356;BME280;36264;51.296;-0.602;2023-03-19T02:33:42;100900.75;;;20.25;47.83
50356;BME280;36264;51.296;-0.602;2023-03-19T02:36:13;100894.09;;;20.45;47.84
50356;BME280;36264;51.296;-0.602;2023-03-19T02:38:42;100900.22;;;20.45;47.88
50356;BME280;36264;51.296;-0.602;2023-03-19T02:41:09;100901.19;;;20.44;47.84
50356;BME280;36264;51.296;-0.602;2023-03-19T02:43:37;100894.09;;;20.45;48.05
50356;BME280;36264;51.296;-0.602;2023-03-19T02:46:05;100900.63;;;20.52;47.46
50356;BME280;36264;51.296;-0.602;2023-03-19T02:48:31;100890.59;;;20.57;47.62
50356;BME280;36264;51.296;-0.602;2023-03-19T02:50:57;100885.03;;;20.49;47.41
50356;BME280;36264;51.296;-0.602;2023-03-19T02:53:23;100889.03;;;20.55;47.71
50356;BME280;36264;51.296;-0.602;2023-03-19T02:55:49;100895.69;;;20.60;47.64
50356;BME280;36264;51.296;-0.602;2023-03-19T02:58:15;100907.72;;;20.52;47.42
50356;BME280;36264;51.296;-0.602;2023-03-19T03:00:40;100913.41;;;20.45;47.65
50356;BME280;36264;51.296;-0.602;2023-03-19T03:03:06;100919.88;;;20.41;47.79
50356;BME280;36264;51.296;-0.602;2023-03-19T03:05:32;100914.69;;;20.40;47.89
50356;BME280;36264;51.296;-0.602;2023-03-19T03:07:58;100908.78;;;20.49;47.57
50356;BME280;36264;51.296;-0.602;2023-03-19T03:10:24;100914.47;;;20.56;47.61
50356;BME280;36264;51.296;-0.602;2023-03-19T03:12:49;100897.59;;;20.45;47.62
50356;BME280;36264;51.296;-0.602;2023-03-19T03:15:15;100900.00;;;20.49;47.72
50356;BME280;36264;51.296;-0.602;2023-03-19T03:17:42;100903.69;;;20.59;47.77
50356;BME280;36264;51.296;-0.602;2023-03-19T03:20:10;100914.88;;;20.62;47.75
50356;BME280;36264;51.296;-0.602;2023-03-19T03:22:37;100918.16;;;20.66;47.71
50356;BME280;36264;51.296;-0.602;2023-03-19T03:25:04;100916.38;;;20.67;47.54
50356;BME280;36264;51.296;-0.602;2023-03-19T03:27:29;100917.75;;;20.47;47.91
50356;BME280;36264;51.296;-0.602;2023-03-19T03:29:55;100922.50;;;20.41;47.73
50356;BME280;36264;51.296;-0.602;2023-03-19T03:32:21;100926.19;;;20.39;47.78
50356;BME280;36264;51.296;-0.602;2023-03-19T03:34:46;100933.69;;;20.32;47.91
50356;BME280;36264;51.296;-0.602;2023-03-19T03:37:12;100934.53;;;20.33;47.73
50356;BME280;36264;51.296;-0.602;2023-03-19T03:39:37;100935.81;;;20.27;48.44
50356;BME280;36264;51.296;-0.602;2023-03-19T03:42:06;100946.16;;;20.30;48.18
50356;BME280;36264;51.296;-0.602;2023-03-19T03:44:32;100943.47;;;20.17;48.22
50356;BME280;36264;51.296;-0.602;2023-03-19T03:46:57;100953.72;;;20.22;48.03
50356;BME280;36264;51.296;-0.602;2023-03-19T03:49:22;100956.34;;;20.22;48.13
50356;BME280;36264;51.296;-0.602;2023-03-19T03:51:48;100950.34;;;20.07;48.14
50356;BME280;36264;51.296;-0.602;2023-03-19T03:54:13;100958.25;;;19.94;48.21
50356;BME280;36264;51.296;-0.602;2023-03-19T03:56:38;100970.47;;;19.95;48.08
50356;BME280;36264;51.296;-0.602;2023-03-19T03:59:04;100967.69;;;19.84;48.17
50356;BME280;36264;51.296;-0.602;2023-03-19T04:01:29;100970.63;;;19.79;48.37
50356;BME280;36264;51.296;-0.602;2023-03-19T04:03:55;100976.88;;;19.78;48.62
50356;BME280;36264;51.296;-0.602;2023-03-19T04:06:22;100976.28;;;20.00;47.77
50356;BME280;36264;51.296;-0.602;2023-03-19T04:08:47;100971.53;;;19.65;48.10
50356;BME280;36264;51.296;-0.602;2023-03-19T04:11:13;100975.31;;;19.61;48.50
50356;BME280;36264;51.296;-0.602;2023-03-19T04:13:39;100988.19;;;19.66;48.09
50356;BME280;36264;51.296;-0.602;2023-03-19T04:16:06;100990.91;;;19.64;48.18
50356;BME280;36264;51.296;-0.602;2023-03-19T04:18:34;100996.16;;;19.79;48.17
50356;BME280;36264;51.296;-0.602;2023-03-19T04:21:00;100997.75;;;19.54;48.02
50356;BME280;36264;51.296;-0.602;2023-03-19T04:23:25;101012.25;;;19.47;47.85
50356;BME280;36264;51.296;-0.602;2023-03-19T04:25:51;101010.81;;;19.55;47.97
50356;BME280;36264;51.296;-0.602;2023-03-19T04:28:16;101015.63;;;19.49;47.76
50356;BME280;36264;51.296;-0.602;2023-03-19T04:30:42;101013.56;;;19.54;48.00
50356;BME280;36264;51.296;-0.602;2023-03-19T04:33:09;101017.81;;;19.69;47.92
50356;BME280;36264;51.296;-0.602;2023-03-19T04:35:35;101021.22;;;19.71;47.41
50356;BME280;36264;51.296;-0.602;2023-03-19T04:38:01;101029.91;;;19.59;47.34
50356;BME280;36264;51.296;-0.602;2023-03-19T04:40:26;101026.69;;;19.68;47.00
50356;BME280;36264;51.296;-0.602;2023-03-19T04:42:52;101029.25;;;19.55;47.07
50356;BME280;36264;51.296;-0.602;2023-03-19T04:45:17;101038.41;;;19.50;47.01
50356;BME280;36264;51.296;-0.602;2023-03-19T04:47:43;101033.91;;;19.37;46.92
50356;BME280;36264;51.296;-0.602;2023-03-19T04:50:09;101030.81;;;19.31;46.95
50356;BME280;36264;51.296;-0.602;2023-03-19T04:52:35;101041.09;;;19.21;47.29
50356;BME280;36264;51.296;-0.602;2023-03-19T04:55:03;101039.28;;;19.22;47.30
50356;BME280;36264;51.296;-0.602;2023-03-19T04:57:28;101043.63;;;19.23;47.23
50356;BME280;36264;51.296;-0.602;2023-03-19T04:59:54;101051.88;;;19.31;47.02
50356;BME280;36264;51.296;-0.602;2023-03-19T05:02:19;101048.69;;;19.26;46.85
50356;BME280;36264;51.296;-0.602;2023-03-19T05:04:45;101053.03;;;19.12;46.98
50356;BME280;36264;51.296;-0.602;2023-03-19T05:07:11;101058.19;;;19.28;46.73
50356;BME280;36264;51.296;-0.602;2023-03-19T05:09:36;101065.16;;;19.15;46.50
50356;BME280;36264;51.296;-0.602;2023-03-19T05:12:02;101060.56;;;19.04;46.58
50356;BME280;36264;51.296;-0.602;2023-03-19T05:14:27;101067.53;;;19.05;46.64
50356;BME280;36264;51.296;-0.602;2023-03-19T05:16:53;101074.56;;;18.90;46.74
50356;BME280;36264;51.296;-0.602;2023-03-19T05:19:18;101076.91;;;18.95;46.87
50356;BME280;36264;51.296;-0.602;2023-03-19T05:21:44;101084.72;;;18.96;46.50
50356;BME280;36264;51.296;-0.602;2023-03-19T05:24:09;101076.91;;;18.95;46.27
50356;BME280;36264;51.296;-0.602;2023-03-19T05:26:35;101078.47;;;18.83;46.47
50356;BME280;36264;51.296;-0.602;2023-03-19T05:29:02;101078.47;;;18.83;46.48
50356;BME280;36264;51.296;-0.602;2023-03-19T05:31:28;101087.75;;;18.74;46.44
50356;BME280;36264;51.296;-0.602;2023-03-19T05:33:54;101094.06;;;18.72;46.09
50356;BME280;36264;51.296;-0.602;2023-03-19T05:36:19;101096.34;;;18.47;46.48
50356;BME280;36264;51.296;-0.602;2023-03-19T05:38:45;101099.66;;;18.51;46.29
50356;BME280;36264;51.296;-0.602;2023-03-19T05:41:10;101104.75;;;18.54;46.50
50356;BME280;36264;51.296;-0.602;2023-03-19T05:43:36;101109.22;;;18.52;45.94
50356;BME280;36264;51.296;-0.602;2023-03-19T05:46:01;101118.00;;;18.53;45.94
50356;BME280;36264;51.296;-0.602;2023-03-19T05:48:27;101116.19;;;18.53;45.86
50356;BME280;36264;51.296;-0.602;2023-03-19T05:50:52;101118.34;;;18.46;45.71
50356;BME280;36264;51.296;-0.602;2023-03-19T05:53:18;101121.28;;;18.56;45.98
50356;BME280;36264;51.296;-0.602;2023-03-19T05:55:43;101126.44;;;18.58;46.28
50356;BME280;36264;51.296;-0.602;2023-03-19T05:58:09;101131.34;;;18.64;45.75
50356;BME280;36264;51.296;-0.602;2023-03-19T06:00:34;101129.03;;;18.43;45.36
50356;BME280;36264;51.296;-0.602;2023-03-19T06:03:00;101127.78;;;18.65;46.21
50356;BME280;36264;51.296;-0.602;2023-03-19T06:05:26;101137.38;;;18.66;46.00
50356;BME280;36264;51.296;-0.602;2023-03-19T06:07:51;101138.47;;;18.62;45.71
50356;BME280;36264;51.296;-0.602;2023-03-19T06:10:17;101136.81;;;18.61;45.61
50356;BME280;36264;51.296;-0.602;2023-03-19T06:12:42;101137.28;;;18.68;45.46
50356;BME280;36264;51.296;-0.602;2023-03-19T06:15:08;101146.09;;;18.67;45.44
50356;BME280;36264;51.296;-0.602;2023-03-19T06:17:34;101148.63;;;18.68;45.29
50356;BME280;36264;51.296;-0.602;2023-03-19T06:20:00;101160.25;;;18.50;45.30
50356;BME280;36264;51.296;-0.602;2023-03-19T06:22:25;101166.22;;;18.37;45.40
50356;BME280;36264;51.296;-0.602;2023-03-19T06:24:51;101168.53;;;18.27;45.22
50356;BME280;36264;51.296;-0.602;2023-03-19T06:27:17;101156.81;;;18.17;45.22
50356;BME280;36264;51.296;-0.602;2023-03-19T06:29:42;101162.88;;;18.03;45.24
50356;BME280;36264;51.296;-0.602;2023-03-19T06:32:08;101164.38;;;18.07;45.22
50356;BME280;36264;51.296;-0.602;2023-03-19T06:34:34;101171.50;;;18.05;45.15
50356;BME280;36264;51.296;-0.602;2023-03-19T06:37:00;101168.78;;;18.07;45.06
50356;BME280;36264;51.296;-0.602;2023-03-19T06:39:26;101173.72;;;17.97;45.06
50356;BME280;36264;51.296;-0.602;2023-03-19T06:41:51;101182.28;;;18.01;44.91
50356;BME280;36264;51.296;-0.602;2023-03-19T06:44:16;101184.41;;;17.94;45.02
50356;BME280;36264;51.296;-0.602;2023-03-19T06:46:42;101195.00;;;17.92;45.09
50356;BME280;36264;51.296;-0.602;2023-03-19T06:49:07;101191.59;;;17.90;45.02
50356;BME280;36264;51.296;-0.602;2023-03-19T06:51:33;101196.09;;;17.88;45.10
50356;BME280;36264;51.296;-0.602;2023-03-19T06:53:58;101201.59;;;18.00;44.69
50356;BME280;36264;51.296;-0.602;2023-03-19T06:56:23;101202.47;;;18.00;44.45
50356;BME280;36264;51.296;-0.602;2023-03-19T06:58:49;101209.31;;;18.03;44.56
50356;BME280;36264;51.296;-0.602;2023-03-19T07:01:14;101207.63;;;18.02;44.86
50356;BME280;36264;51.296;-0.602;2023-03-19T07:03:40;101214.06;;;17.96;44.90
50356;BME280;36264;51.296;-0.602;2023-03-19T07:06:05;101214.41;;;18.06;44.81
50356;BME280;36264;51.296;-0.602;2023-03-19T07:08:32;101220.50;;;18.06;44.76
50356;BME280;36264;51.296;-0.602;2023-03-19T07:11:05;101226.97;;;18.17;44.54
50356;BME280;36264;51.296;-0.602;2023-03-19T07:13:31;101223.13;;;18.06;45.08
50356;BME280;36264;51.296;-0.602;2023-03-19T07:15:57;101226.13;;;18.16;45.23
50356;BME280;36264;51.296;-0.602;2023-03-19T07:18:23;101228.59;;;18.19;45.06
50356;BME280;36264;51.296;-0.602;2023-03-19T07:20:48;101229.66;;;18.15;45.51
50356;BME280;36264;51.296;-0.602;2023-03-19T07:23:14;101232.38;;;18.14;45.75
50356;BME280;36264;51.296;-0.602;2023-03-19T07:25:39;101237.63;;;18.29;45.59
50356;BME280;36264;51.296;-0.602;2023-03-19T07:28:05;101244.09;;;18.40;45.64
50356;BME280;36264;51.296;-0.602;2023-03-19T07:30:31;101249.44;;;18.38;45.80
50356;BME280;36264;51.296;-0.602;2023-03-19T07:32:57;101251.72;;;18.60;45.65
50356;BME280;36264;51.296;-0.602;2023-03-19T07:35:22;101249.50;;;18.53;45.62
50356;BME280;36264;51.296;-0.602;2023-03-19T07:37:48;101249.25;;;18.57;45.61
50356;BME280;36264;51.296;-0.602;2023-03-19T07:40:13;101258.06;;;18.56;45.72
50356;BME280;36264;51.296;-0.602;2023-03-19T07:42:39;101241.38;;;18.41;46.03
50356;BME280;36264;51.296;-0.602;2023-03-19T07:45:05;101251.00;;;18.57;45.87
50356;BME280;36264;51.296;-0.602;2023-03-19T07:47:31;101260.03;;;18.53;45.40
50356;BME280;36264;51.296;-0.602;2023-03-19T07:49:57;101258.81;;;18.58;45.68
50356;BME280;36264;51.296;-0.602;2023-03-19T07:52:23;101257.16;;;18.57;46.27
50356;BME280;36264;51.296;-0.602;2023-03-19T07:54:49;101260.63;;;18.58;45.79
50356;BME280;36264;51.296;-0.602;2023-03-19T07:57:15;101270.72;;;18.65;45.80
50356;BME280;36264;51.296;-0.602;2023-03-19T07:59:40;101275.47;;;18.75;45.53
50356;BME280;36264;51.296;-0.602;2023-03-19T08:02:09;101275.38;;;18.76;45.56
50356;BME280;36264;51.296;-0.602;2023-03-19T08:04:35;101279.03;;;18.58;46.05
50356;BME280;36264;51.296;-0.602;2023-03-19T08:07:01;101283.59;;;18.70;45.88
50356;BME280;36264;51.296;-0.602;2023-03-19T08:09:26;101278.50;;;18.67;46.11
50356;BME280;36264;51.296;-0.602;2023-03-19T08:11:52;101290.88;;;18.81;45.82
50356;BME280;36264;51.296;-0.602;2023-03-19T08:14:17;101294.72;;;18.59;45.50
50356;BME280;36264;51.296;-0.602;2023-03-19T08:16:47;101293.28;;;18.54;45.56
50356;BME280;36264;51.296;-0.602;2023-03-19T08:19:12;101289.03;;;18.67;45.67
50356;BME280;36264;51.296;-0.602;2023-03-19T08:21:38;101296.25;;;18.79;45.54
50356;BME280;36264;51.296;-0.602;2023-03-19T08:24:03;101301.50;;;18.63;44.83
50356;BME280;36264;51.296;-0.602;2023-03-19T08:26:29;101299.56;;;18.51;45.69
50356;BME280;36264;51.296;-0.602;2023-03-19T08:28:54;101308.22;;;18.69;45.87
50356;BME280;36264;51.296;-0.602;2023-03-19T08:31:20;101313.31;;;18.88;45.68
50356;BME280;36264;51.296;-0.602;2023-03-19T08:33:45;101312.47;;;18.72;45.76
50356;BME280;36264;51.296;-0.602;2023-03-19T08:36:12;101313.44;;;19.01;45.65
50356;BME280;36264;51.296;-0.602;2023-03-19T08:38:38;101311.25;;;18.93;45.29
50356;BME280;36264;51.296;-0.602;2023-03-19T08:41:04;101313.28;;;19.04;45.42
50356;BME280;36264;51.296;-0.602;2023-03-19T08:43:31;101322.47;;;18.49;45.50
50356;BME280;36264;51.296;-0.602;2023-03-19T08:45:56;101325.72;;;18.86;45.47
50356;BME280;36264;51.296;-0.602;2023-03-19T08:48:22;101323.56;;;18.77;45.14
50356;BME280;36264;51.296;-0.602;2023-03-19T08:50:58;101330.00;;;19.03;45.07
50356;BME280;36264;51.296;-0.602;2023-03-19T08:53:25;101336.25;;;18.86;44.95
50356;BME280;36264;51.296;-0.602;2023-03-19T08:55:55;101336.91;;;18.90;44.90
50356;BME280;36264;51.296;-0.602;2023-03-19T08:58:22;101342.16;;;18.74;45.53
50356;BME280;36264;51.296;-0.602;2023-03-19T09:00:47;101342.38;;;19.17;45.37
50356;BME280;36264;51.296;-0.602;2023-03-19T09:03:14;101336.59;;;19.26;44.62
50356;BME280;36264;51.296;-0.602;2023-03-19T09:05:40;101340.47;;;19.35;44.70
50356;BME280;36264;51.296;-0.602;2023-03-19T09:08:05;101346.66;;;19.34;44.71
50356;BME280;36264;51.296;-0.602;2023-03-19T09:10:31;101353.13;;;19.59;44.77
50356;BME280;36264;51.296;-0.602;2023-03-19T09:12:57;101354.53;;;19.50;44.23
50356;BME280;36264;51.296;-0.602;2023-03-19T09:15:22;101354.41;;;19.37;44.32
50356;BME280;36264;51.296;-0.602;2023-03-19T09:17:48;101360.63;;;19.50;44.76
50356;BME280;36264;51.296;-0.602;2023-03-19T09:20:13;101361.00;;;19.59;44.37
50356;BME280;36264;51.296;-0.602;2023-03-19T09:22:39;101371.78;;;19.40;43.41
50356;BME280;36264;51.296;-0.602;2023-03-19T09:25:05;101365.94;;;19.65;44.69
50356;BME280;36264;51.296;-0.602;2023-03-19T09:27:30;101368.81;;;19.46;43.03
50356;BME280;36264;51.296;-0.602;2023-03-19T09:29:55;101379.94;;;19.51;44.62
50356;BME280;36264;51.296;-0.602;2023-03-19T09:32:21;101377.22;;;19.52;44.31
50356;BME280;36264;51.296;-0.602;2023-03-19T09:34:46;101376.38;;;19.66;44.38
50356;BME280;36264;51.296;-0.602;2023-03-19T09:37:12;101377.78;;;19.88;44.38
50356;BME280;36264;51.296;-0.602;2023-03-19T09:39:37;101383.78;;;19.90;44.30
50356;BME280;36264;51.296;-0.602;2023-03-19T09:44:42;101387.59;;;20.29;44.06
50356;BME280;36264;51.296;-0.602;2023-03-19T09:49:51;101389.06;;;20.19;44.39
50356;BME280;36264;51.296;-0.602;2023-03-19T09:52:34;101387.31;;;20.19;42.17
50356;BME280;36264;51.296;-0.602;2023-03-19T09:55:15;101399.44;;;20.07;41.65
50356;BME280;36264;51.296;-0.602;2023-03-19T09:57:45;101394.44;;;20.03;43.59
50356;BME280;36264;51.296;-0.602;2023-03-19T10:00:26;101399.91;;;20.00;41.67
50356;BME280;36264;51.296;-0.602;2023-03-19T10:02:57;101403.69;;;19.65;42.43
50356;BME280;36264;51.296;-0.602;2023-03-19T10:11:07;101404.34;;;20.28;40.77
50356;BME280;36264;51.296;-0.602;2023-03-19T10:16:30;101419.41;;;19.97;42.33
50356;BME280;36264;51.296;-0.602;2023-03-19T10:19:02;101416.69;;;19.99;40.38
50356;BME280;36264;51.296;-0.602;2023-03-19T10:21:49;101427.44;;;20.24;41.87
50356;BME280;36264;51.296;-0.602;2023-03-19T10:24:32;101422.25;;;20.23;42.16
50356;BME280;36264;51.296;-0.602;2023-03-19T10:27:08;101425.44;;;20.14;41.14
50356;BME280;36264;51.296;-0.602;2023-03-19T10:29:34;101425.72;;;20.09;42.97
50356;BME280;36264;51.296;-0.602;2023-03-19T10:34:33;101429.22;;;20.24;42.56
50356;BME280;36264;51.296;-0.602;2023-03-19T10:39:38;101428.00;;;20.30;42.27
50356;BME280;36264;51.296;-0.602;2023-03-19T10:42:55;101432.72;;;20.24;40.10
50356;BME280;36264;51.296;-0.602;2023-03-19T10:45:28;101432.16;;;20.34;42.59
50356;BME280;36264;51.296;-0.602;2023-03-19T10:47:56;101435.16;;;20.27;42.64
50356;BME280;36264;51.296;-0.602;2023-03-19T10:53:30;101442.78;;;20.47;41.67
50356;BME280;36264;51.296;-0.602;2023-03-19T10:56:00;101436.66;;;20.17;41.90
50356;BME280;36264;51.296;-0.602;2023-03-19T10:58:28;101435.34;;;20.39;42.13
50356;BME280;36264;51.296;-0.602;2023-03-19T11:01:13;101442.31;;;20.25;41.37
50356;BME280;36264;51.296;-0.602;2023-03-19T11:03:50;101433.34;;;20.42;41.16
50356;BME280;36264;51.296;-0.602;2023-03-19T11:08:55;101434.50;;;20.38;42.03
50356;BME280;36264;51.296;-0.602;2023-03-19T11:11:47;101435.34;;;20.24;39.45
50356;BME280;36264;51.296;-0.602;2023-03-19T11:14:37;101429.22;;;20.81;40.73
50356;BME280;36264;51.296;-0.602;2023-03-19T11:17:16;101435.03;;;20.87;39.63
50356;BME280;36264;51.296;-0.602;2023-03-19T11:19:51;101435.28;;;20.96;39.66
50356;BME280;36264;51.296;-0.602;2023-03-19T11:22:24;101441.75;;;21.20;39.32
50356;BME280;36264;51.296;-0.602;2023-03-19T11:24:56;101432.22;;;21.17;40.03
50356;BME280;36264;51.296;-0.602;2023-03-19T11:27:31;101432.78;;;20.80;40.44
50356;BME280;36264;51.296;-0.602;2023-03-19T11:29:59;101441.84;;;20.76;40.95
50356;BME280;36264;51.296;-0.602;2023-03-19T11:35:10;101443.72;;;20.74;39.36
50356;BME280;36264;51.296;-0.602;2023-03-19T11:37:55;101449.38;;;20.54;39.14
50356;BME280;36264;51.296;-0.602;2023-03-19T11:43:29;101449.72;;;21.05;39.33
50356;BME280;36264;51.296;-0.602;2023-03-19T11:46:25;101455.78;;;20.93;38.49
50356;BME280;36264;51.296;-0.602;2023-03-19T11:51:50;101465.69;;;20.89;39.77
50356;BME280;36264;51.296;-0.602;2023-03-19T11:54:20;101468.16;;;20.63;41.12
50356;BME280;36264;51.296;-0.602;2023-03-19T11:56:52;101471.72;;;20.91;40.13
50356;BME280;36264;51.296;-0.602;2023-03-19T12:18:22;101474.53;;;20.88;37.51
50356;BME280;36264;51.296;-0.602;2023-03-19T12:26:08;101479.13;;;21.13;39.82
50356;BME280;36264;51.296;-0.602;2023-03-19T12:31:37;101474.22;;;21.49;38.98
50356;BME280;36264;51.296;-0.602;2023-03-19T12:34:34;101473.53;;;21.45;38.90
50356;BME280;36264;51.296;-0.602;2023-03-19T12:37:23;101473.38;;;21.48;39.27
50356;BME280;36264;51.296;-0.602;2023-03-19T12:40:05;101474.56;;;21.15;37.99
50356;BME280;36264;51.296;-0.602;2023-03-19T12:42:38;101473.78;;;21.01;39.70
50356;BME280;36264;51.296;-0.602;2023-03-19T12:45:15;101466.69;;;21.01;38.43
50356;BME280;36264;51.296;-0.602;2023-03-19T12:47:44;101470.66;;;21.08;39.61
50356;BME280;36264;51.296;-0.602;2023-03-19T12:50:13;101462.97;;;21.18;39.86
50356;BME280;36264;51.296;-0.602;2023-03-19T12:52:49;101463.31;;;21.26;39.48
50356;BME280;36264;51.296;-0.602;2023-03-19T12:55:42;101469.34;;;21.28;38.16
50356;BME280;36264;51.296;-0.602;2023-03-19T12:58:32;101470.94;;;21.31;39.69
50356;BME280;36264;51.296;-0.602;2023-03-19T13:01:11;101473.06;;;21.26;37.12
50356;BME280;36264;51.296;-0.602;2023-03-19T13:04:02;101472.66;;;21.32;37.56
50356;BME280;36264;51.296;-0.602;2023-03-19T13:06:36;101472.25;;;21.38;39.17
50356;BME280;36264;51.296;-0.602;2023-03-19T13:12:00;101462.22;;;21.43;37.86
50356;BME280;36264;51.296;-0.602;2023-03-19T13:14:51;101476.84;;;21.76;40.24
50356;BME280;36264;51.296;-0.602;2023-03-19T13:19:50;101461.19;;;21.73;39.93
50356;BME280;36264;51.296;-0.602;2023-03-19T13:22:22;101464.31;;;21.52;40.61
50356;BME280;36264;51.296;-0.602;2023-03-19T13:24:50;101455.91;;;21.73;40.03
50356;BME280;36264;51.296;-0.602;2023-03-19T13:27:26;101456.66;;;21.88;39.20
50356;BME280;36264;51.296;-0.602;2023-03-19T13:30:16;101462.78;;;21.88;38.08
50356;BME280;36264;51.296;-0.602;2023-03-19T13:35:27;101462.06;;;21.99;38.33
50356;BME280;36264;51.296;-0.602;2023-03-19T13:38:00;101456.88;;;21.98;39.99
50356;BME280;36264;51.296;-0.602;2023-03-19T13:48:38;101457.50;;;21.88;38.34
50356;BME280;36264;51.296;-0.602;2023-03-19T13:54:06;101463.31;;;21.81;37.53
50356;BME280;36264;51.296;-0.602;2023-03-19T13:57:01;101462.88;;;21.87;36.87
50356;BME280;36264;51.296;-0.602;2023-03-19T13:59:37;101463.88;;;21.99;38.67
50356;BME280;36264;51.296;-0.602;2023-03-19T14:04:59;101465.00;;;22.07;38.31
50356;BME280;36264;51.296;-0.602;2023-03-19T14:07:28;101466.81;;;21.94;38.23
50356;BME280;36264;51.296;-0.602;2023-03-19T14:12:32;101463.13;;;21.97;37.53